Time;durP1;ratioP1;P1;durP2;ratioP2;P2;SDS_P1;SDS_P2;PMS_P1;PMS_P2;Temp;Humidity;BMP_temperature;BMP_pressure;BME280_temperature;BME280_humidity;BME280_pressure;Samples;Min_cycle;Max_cycle;Signal;HPM_P1;HPM_P2
2022/01/19 00:00:37;;;;;;;47.00;26.60;;;;;;;0.11;82.15;101939.06;87771;1284;80308;-71
2022/01/19 00:02:50;;;;;;;49.40;26.50;;;;;;;0.11;82.20;101935.36;87758;1283;81839;-61
2022/01/19 00:04:55;;;;;;;52.20;26.40;;;;;;;0.09;82.16;101942.18;87759;1283;98661;-61
2022/01/19 00:07:01;;;;;;;46.40;25.70;;;;;;;0.06;82.07;101938.27;87777;1283;88729;-70
2022/01/19 00:09:10;;;;;;;44.10;24.40;;;;;;;0.01;82.12;101934.31;87588;1284;95121;-71
2022/01/19 00:11:16;;;;;;;45.30;24.30;;;;;;;-0.03;82.24;101932.59;87767;1283;80663;-71
2022/01/19 00:13:22;;;;;;;48.20;25.10;;;;;;;-0.04;82.19;101926.08;87468;1286;83199;-62
2022/01/19 00:15:31;;;;;;;48.70;24.40;;;;;;;-0.05;82.26;101925.23;87608;1284;99807;-61
2022/01/19 00:17:37;;;;;;;47.30;24.60;;;;;;;-0.07;82.23;101915.98;87722;1283;89190;-70
2022/01/19 00:19:42;;;;;;;47.40;25.20;;;;;;;-0.07;82.20;101916.52;87717;1283;94398;-70
2022/01/19 00:21:49;;;;;;;47.80;25.30;;;;;;;-0.11;82.36;101913.59;87718;1283;82126;-69
2022/01/19 00:23:58;;;;;;;46.20;23.60;;;;;;;-0.08;82.34;101913.23;87758;1283;80271;-61
2022/01/19 00:26:07;;;;;;;52.30;26.70;;;;;;;-0.02;82.41;101901.89;87725;1283;100380;-61
2022/01/19 00:28:14;;;;;;;52.00;23.90;;;;;;;0.03;82.38;101898.30;87745;1283;88141;-71
2022/01/19 00:30:20;;;;;;;47.90;25.90;;;;;;;0.04;82.35;101898.92;87734;1283;95604;-71
2022/01/19 00:32:30;;;;;;;45.20;23.30;;;;;;;0.06;82.32;101895.27;87734;1283;82151;-60
2022/01/19 00:34:36;;;;;;;46.30;23.90;;;;;;;0.07;82.39;101894.68;87708;1283;83089;-61
2022/01/19 00:36:45;;;;;;;42.10;23.40;;;;;;;0.08;82.39;101895.88;87710;1283;100611;-61
2022/01/19 00:38:54;;;;;;;45.20;21.40;;;;;;;0.11;82.38;101895.33;87719;1283;88073;-61
2022/01/19 00:41:01;;;;;;;39.70;19.90;;;;;;;0.14;82.41;101895.86;87710;1283;94926;-62
2022/01/19 00:43:07;;;;;;;42.10;20.40;;;;;;;0.17;82.38;101896.05;87581;1284;81580;-62
2022/01/19 00:45:14;;;;;;;38.00;20.00;;;;;;;0.17;82.40;101895.00;87734;1283;81999;-61
2022/01/19 00:47:20;;;;;;;40.50;20.70;;;;;;;0.18;82.37;101898.48;87727;1283;98218;-62
2022/01/19 00:49:26;;;;;;;39.10;19.80;;;;;;;0.19;82.29;101893.27;87748;1283;86730;-62
2022/01/19 00:51:31;;;;;;;39.30;20.60;;;;;;;0.20;82.17;101888.96;87695;1283;95052;-59
2022/01/19 00:53:38;;;;;;;38.30;20.60;;;;;;;0.20;82.28;101885.26;87708;1283;81768;-72
2022/01/19 00:55:47;;;;;;;42.30;19.70;;;;;;;0.16;82.32;101888.99;87717;1283;80639;-70
2022/01/19 00:57:53;;;;;;;37.50;19.10;;;;;;;0.16;82.35;101892.19;87577;1284;99867;-72
2022/01/19 00:59:59;;;;;;;36.60;17.40;;;;;;;0.13;82.37;101887.21;87724;1282;88435;-71
2022/01/19 01:02:06;;;;;;;31.60;16.90;;;;;;;0.13;82.46;101883.16;87643;1283;95811;-71
2022/01/19 01:04:15;;;;;;;32.90;17.30;;;;;;;0.16;82.31;101873.60;87718;1283;79049;-72
2022/01/19 01:06:23;;;;;;;38.30;17.10;;;;;;;0.18;82.41;101876.86;87740;1284;79733;-69
2022/01/19 01:08:29;;;;;;;35.50;16.90;;;;;;;0.22;82.40;101877.13;87599;1284;99228;-62
2022/01/19 01:10:42;;;;;;;27.40;15.20;;;;;;;0.25;82.34;101876.62;87712;1283;88746;-62
2022/01/19 01:12:51;;;;;;;34.30;15.40;;;;;;;0.23;82.32;101871.80;87718;1284;94371;-72
2022/01/19 01:19:44;;;;;;;36.00;17.40;;;;;;;0.23;82.26;101867.16;87722;1284;100604;-71
2022/01/19 01:21:52;;;;;;;32.20;16.70;;;;;;;0.22;82.31;101860.84;87700;1284;88502;-66
2022/01/19 01:23:58;;;;;;;32.40;14.30;;;;;;;0.20;82.24;101849.64;87681;1284;95045;-72
2022/01/19 01:26:07;;;;;;;32.50;14.70;;;;;;;0.16;82.26;101847.94;87697;1284;80630;-71
2022/01/19 01:28:14;;;;;;;32.80;15.20;;;;;;;0.16;82.29;101838.52;87705;1284;83248;-62
2022/01/19 01:30:22;;;;;;;30.90;14.30;;;;;;;0.19;82.26;101836.45;87717;1284;101162;-63
2022/01/19 01:32:28;;;;;;;26.40;13.50;;;;;;;0.18;82.25;101827.77;87735;1284;88057;-72
2022/01/19 01:34:35;;;;;;;25.90;13.70;;;;;;;0.22;82.34;101819.95;87686;1284;95680;-72
2022/01/19 01:36:40;;;;;;;28.10;13.50;;;;;;;0.26;82.39;101815.83;87715;1284;79306;-72
2022/01/19 01:38:49;;;;;;;27.70;13.30;;;;;;;0.31;82.41;101813.89;87707;1284;82098;-62
2022/01/19 01:40:55;;;;;;;32.70;14.10;;;;;;;0.35;82.39;101804.47;87685;1284;100810;-62
2022/01/19 01:43:03;;;;;;;29.30;13.50;;;;;;;0.39;82.32;101804.55;87745;1284;88041;-61
2022/01/19 01:45:13;;;;;;;27.40;13.70;;;;;;;0.36;82.34;101801.75;87685;1283;94022;-62
2022/01/19 01:47:23;;;;;;;33.00;15.70;;;;;;;0.34;82.40;101794.80;87705;1284;78736;-62
2022/01/19 01:49:45;;;;;;;28.60;14.40;;;;;;;0.31;82.35;101785.17;87748;1284;82713;-62
2022/01/19 01:54:19;;;;;;;24.00;13.90;;;;;;;0.21;82.49;101771.98;87703;1283;87553;-61
2022/01/19 01:56:26;;;;;;;34.10;16.20;;;;;;;0.19;82.54;101776.54;87704;1283;95174;-62
2022/01/19 01:58:36;;;;;;;27.40;13.80;;;;;;;0.20;82.60;101777.90;87698;1283;78101;-72
2022/01/19 02:00:41;;;;;;;27.80;14.10;;;;;;;0.23;82.56;101774.88;87675;1283;80599;-72
2022/01/19 02:02:48;;;;;;;29.80;14.40;;;;;;;0.25;82.65;101764.14;87694;1283;100100;-72
2022/01/19 02:04:58;;;;;;;37.10;15.60;;;;;;;0.26;82.59;101757.69;87704;1283;89248;-71
2022/01/19 02:07:30;;;;;;;29.00;15.00;;;;;;;0.30;82.67;101746.33;87686;1284;94493;-61
2022/01/19 02:09:38;;;;;;;36.00;17.50;;;;;;;0.28;82.73;101740.74;87659;1283;80844;-61
2022/01/19 02:21:37;;;;;;;32.70;16.20;;;;;;;0.39;82.81;101740.07;87692;1283;87810;-66
2022/01/19 02:21:58;;;;;;;39.70;17.00;;;;;;;0.46;82.73;101749.55;87665;1283;81199;-72
2022/01/19 02:24:06;;;;;;;37.30;19.10;;;;;;;0.44;82.82;101746.48;87649;1283;81144;-62
2022/01/19 02:26:21;;;;;;;40.30;17.50;;;;;;;0.46;82.82;101743.90;87718;1283;99141;-64
2022/01/19 02:40:49;;;;;;;35.40;16.50;;;;;;;0.56;82.88;101714.55;87680;1283;88651;-73
2022/01/19 02:43:07;;;;;;;34.90;18.20;;;;;;;0.52;82.97;101708.80;87721;1283;94139;-62
2022/01/19 02:50:07;;;;;;;36.20;15.90;;;;;;;0.38;83.15;101701.48;87666;1283;101037;-64
2022/01/19 02:52:17;;;;;;;36.00;16.40;;;;;;;0.37;83.14;101692.54;87708;1283;88924;-73
2022/01/19 02:54:27;;;;;;;36.30;16.00;;;;;;;0.37;83.24;101685.81;87664;1283;94968;-73
2022/01/19 02:56:37;;;;;;;31.20;14.80;;;;;;;0.36;83.37;101682.17;87664;1283;78493;-75
2022/01/19 02:58:52;;;;;;;29.90;15.00;;;;;;;0.37;83.42;101681.02;87662;1283;80793;-62
2022/01/19 03:10:43;;;;;;;31.90;14.70;;;;;;;0.52;83.73;101664.45;87701;1283;81953;-62
2022/01/19 03:12:52;;;;;;;29.40;13.90;;;;;;;0.57;83.71;101653.17;87697;1283;100156;-73
2022/01/19 03:15:01;;;;;;;26.70;13.60;;;;;;;0.56;83.77;101647.07;87681;1283;87921;-74
2022/01/19 03:17:12;;;;;;;33.90;14.50;;;;;;;0.58;83.78;101640.02;87705;1283;94860;-67
2022/01/19 03:19:21;;;;;;;29.50;13.50;;;;;;;0.59;83.72;101630.39;87602;1284;79287;-61
2022/01/19 03:21:27;;;;;;;29.30;13.70;;;;;;;0.55;83.94;101624.98;87697;1283;82594;-61
2022/01/19 03:23:33;;;;;;;35.70;14.40;;;;;;;0.57;83.97;101619.67;87680;1283;100558;-61
2022/01/19 03:25:42;;;;;;;28.40;12.80;;;;;;;0.54;84.02;101612.61;87678;1283;88977;-61
2022/01/19 03:27:48;;;;;;;30.20;13.50;;;;;;;0.45;84.25;101603.45;87662;1283;94994;-75
2022/01/19 03:29:54;;;;;;;27.80;12.90;;;;;;;0.40;84.44;101602.35;87671;1283;82242;-71
2022/01/19 03:32:05;;;;;;;27.20;12.90;;;;;;;0.40;84.28;101595.27;87657;1284;82849;-73
2022/01/19 03:34:16;;;;;;;29.30;12.20;;;;;;;0.41;84.48;101588.09;87597;1284;99082;-60
2022/01/19 03:36:21;;;;;;;27.40;12.90;;;;;;;0.43;84.37;101588.84;87631;1284;89294;-60
2022/01/19 03:38:27;;;;;;;24.70;12.10;;;;;;;0.43;84.47;101587.27;87606;1284;93923;-61
2022/01/19 03:40:37;;;;;;;25.00;12.10;;;;;;;0.45;84.55;101581.64;87626;1284;80799;-62
2022/01/19 03:42:43;;;;;;;28.80;12.60;;;;;;;0.50;84.67;101579.39;87684;1283;79738;-61
2022/01/19 03:44:48;;;;;;;28.00;12.10;;;;;;;0.53;84.69;101583.28;87685;1283;100317;-60
2022/01/19 03:46:59;;;;;;;24.90;11.10;;;;;;;0.52;84.83;101577.28;87722;1282;89871;-72
2022/01/19 03:49:12;;;;;;;21.70;12.20;;;;;;;0.58;84.96;101567.83;87679;1283;93794;-62
2022/01/19 03:51:18;;;;;;;27.50;12.50;;;;;;;0.61;84.74;101560.79;87672;1283;78969;-62
2022/01/19 03:53:23;;;;;;;25.70;11.40;;;;;;;0.65;84.81;101554.67;87723;1283;82766;-61
2022/01/19 03:55:29;;;;;;;23.00;12.20;;;;;;;0.68;84.88;101551.27;87697;1283;98838;-60
2022/01/19 03:57:34;;;;;;;24.90;11.30;;;;;;;0.72;85.08;101552.83;87696;1283;89181;-73
2022/01/19 03:59:41;;;;;;;22.50;11.30;;;;;;;0.74;85.16;101553.02;87704;1283;94324;-74
2022/01/19 04:01:51;;;;;;;23.10;10.50;;;;;;;0.78;85.14;101554.70;87669;1283;81334;-61
2022/01/19 04:06:28;;;;;;;24.90;11.00;;;;;;;0.82;85.01;101547.18;87367;1283;99077;-60
2022/01/19 04:08:38;;;;;;;24.70;11.40;;;;;;;0.87;85.15;101543.30;87672;1283;87582;-74
2022/01/19 04:10:47;;;;;;;22.00;11.10;;;;;;;0.90;85.22;101532.64;87653;1283;95616;-75
2022/01/19 04:12:56;;;;;;;24.60;10.90;;;;;;;0.92;85.18;101527.73;87696;1283;79302;-61
2022/01/19 04:15:03;;;;;;;22.80;11.60;;;;;;;0.92;85.21;101528.48;87693;1283;81880;-61
2022/01/19 04:17:15;;;;;;;21.70;11.40;;;;;;;0.96;85.30;101522.52;87691;1283;99432;-74
2022/01/19 04:19:29;;;;;;;26.80;11.30;;;;;;;0.96;85.14;101520.01;87726;1283;88548;-75
2022/01/19 04:21:38;;;;;;;21.00;11.90;;;;;;;0.96;85.21;101523.56;87683;1283;95959;-73
2022/01/19 04:23:44;;;;;;;24.90;11.60;;;;;;;0.92;85.13;101520.80;87692;1283;76762;-62
2022/01/19 04:25:50;;;;;;;23.60;12.10;;;;;;;0.93;85.35;101517.40;87700;1283;80960;-60
2022/01/19 04:27:56;;;;;;;23.10;12.10;;;;;;;0.90;85.25;101515.27;87678;1283;99473;-61
2022/01/19 04:30:12;;;;;;;22.10;11.10;;;;;;;0.90;85.21;101516.02;87679;1283;88226;-60
2022/01/19 04:32:18;;;;;;;25.10;12.00;;;;;;;0.88;85.23;101512.91;87598;1283;95755;-60
2022/01/19 04:34:24;;;;;;;22.80;11.30;;;;;;;0.89;85.27;101514.61;87684;1283;79417;-62
2022/01/19 04:36:36;;;;;;;22.90;11.10;;;;;;;0.93;85.46;101507.09;87656;1283;81583;-60
2022/01/19 04:44:12;;;;;;;25.40;12.00;;;;;;;1.07;85.54;101495.88;87599;1284;94564;-75
2022/01/19 04:47:01;;;;;;;23.50;12.70;;;;;;;1.10;85.53;101489.06;87708;1283;77398;-76
2022/01/19 04:54:05;;;;;;;28.30;12.70;;;;;;;1.09;85.54;101487.55;87717;1283;80452;-62
2022/01/19 05:01:44;;;;;;;26.10;13.20;;;;;;;1.08;85.56;101470.98;87636;1283;79842;-61
2022/01/19 05:04:04;;;;;;;26.20;13.40;;;;;;;1.11;85.69;101465.45;87676;1283;100582;-61
2022/01/19 05:06:14;;;;;;;23.50;13.50;;;;;;;1.11;85.68;101462.23;87688;1283;88470;-62
2022/01/19 05:08:37;;;;;;;25.80;13.10;;;;;;;1.16;85.76;101458.89;87646;1283;95107;-77
2022/01/19 05:13:27;;;;;;;24.20;12.10;;;;;;;1.25;85.61;101450.66;87083;1291;82079;-77
2022/01/19 05:15:36;;;;;;;25.50;13.70;;;;;;;1.26;85.69;101449.73;87709;1283;100842;-74
2022/01/19 05:17:42;;;;;;;24.90;14.00;;;;;;;1.29;85.80;101447.00;87662;1283;89215;-75
2022/01/19 05:19:48;;;;;;;27.90;13.80;;;;;;;1.27;85.77;101442.23;87679;1283;94439;-76
2022/01/19 05:21:54;;;;;;;28.00;13.90;;;;;;;1.24;85.73;101443.63;87655;1283;81494;-75
2022/01/19 05:24:04;;;;;;;23.40;13.50;;;;;;;1.20;85.63;101437.86;87720;1284;81459;-77
2022/01/19 05:26:13;;;;;;;27.10;13.70;;;;;;;1.20;85.76;101434.86;87678;1284;98215;-71
2022/01/19 05:28:22;;;;;;;24.70;14.00;;;;;;;1.22;85.80;101435.59;87640;1284;88361;-61
2022/01/19 05:30:33;;;;;;;26.20;13.00;;;;;;;1.23;85.95;101431.95;87591;1284;97630;-61
2022/01/19 05:32:39;;;;;;;26.80;14.10;;;;;;;1.25;85.95;101431.31;87694;1283;78300;-72
2022/01/19 05:34:47;;;;;;;24.80;12.40;;;;;;;1.26;85.87;101430.37;87692;1283;81275;-72
2022/01/19 05:36:54;;;;;;;23.70;12.50;;;;;;;1.26;85.91;101426.10;87714;1284;98850;-62
2022/01/19 05:39:00;;;;;;;28.90;14.40;;;;;;;1.30;85.97;101426.92;87662;1283;88646;-61
2022/01/19 05:41:09;;;;;;;27.80;14.00;;;;;;;1.28;85.95;101424.00;87697;1283;94554;-61
2022/01/19 05:43:15;;;;;;;25.40;14.20;;;;;;;1.32;85.86;101427.63;87671;1283;78049;-72
2022/01/19 05:45:22;;;;;;;26.90;14.90;;;;;;;1.29;85.86;101427.35;87696;1283;83135;-72
2022/01/19 05:47:28;;;;;;;26.40;14.90;;;;;;;1.27;85.91;101424.09;87706;1283;100486;-71
2022/01/19 05:49:34;;;;;;;31.90;15.50;;;;;;;1.28;85.90;101425.98;87684;1283;88080;-72
2022/01/19 05:51:39;;;;;;;26.40;13.80;;;;;;;1.26;85.90;101423.82;87685;1284;92915;-73
2022/01/19 05:53:45;;;;;;;26.00;13.30;;;;;;;1.26;85.93;101422.91;87688;1283;79895;-61
2022/01/19 05:55:52;;;;;;;21.40;12.10;;;;;;;1.28;85.92;101422.75;87677;1283;82318;-60
2022/01/19 05:57:58;;;;;;;25.50;13.90;;;;;;;1.32;85.93;101425.34;87597;1284;100787;-75
2022/01/19 06:00:07;;;;;;;26.00;12.80;;;;;;;1.37;85.91;101429.44;87671;1283;88190;-70
2022/01/19 06:02:14;;;;;;;24.70;12.90;;;;;;;1.38;86.05;101431.63;87677;1283;95857;-63
2022/01/19 06:04:23;;;;;;;24.10;13.50;;;;;;;1.42;85.98;101423.40;87679;1283;78265;-61
2022/01/19 06:06:33;;;;;;;25.80;13.10;;;;;;;1.44;85.95;101425.36;87700;1283;81336;-62
2022/01/19 06:08:44;;;;;;;27.70;13.70;;;;;;;1.45;86.02;101421.89;87672;1283;100827;-61
2022/01/19 06:10:54;;;;;;;25.20;15.00;;;;;;;1.45;85.97;101421.96;87727;1283;88103;-61
2022/01/19 06:13:01;;;;;;;26.20;13.70;;;;;;;1.41;85.87;101414.38;87679;1283;94492;-62
2022/01/19 06:15:12;;;;;;;25.90;13.60;;;;;;;1.41;85.92;101412.48;87665;1283;78481;-62
2022/01/19 06:17:21;;;;;;;25.20;13.50;;;;;;;1.39;85.79;101409.73;87662;1283;80859;-62
2022/01/19 06:19:27;;;;;;;24.10;12.90;;;;;;;1.35;85.99;101407.34;87670;1283;100000;-62
2022/01/19 06:21:33;;;;;;;27.10;14.20;;;;;;;1.36;86.00;101408.92;87666;1283;89067;-62
2022/01/19 06:23:40;;;;;;;22.40;12.70;;;;;;;1.37;86.02;101406.84;87677;1284;93783;-72
2022/01/19 06:25:47;;;;;;;19.90;12.10;;;;;;;1.37;86.07;101403.84;87639;1284;80164;-74
2022/01/19 06:27:55;;;;;;;22.90;12.40;;;;;;;1.41;86.12;101400.39;87698;1284;80958;-73
2022/01/19 06:30:01;;;;;;;26.90;12.80;;;;;;;1.47;86.15;101399.11;87653;1284;101222;-73
2022/01/19 06:32:09;;;;;;;22.10;12.20;;;;;;;1.48;86.03;101393.47;87682;1283;88791;-62
2022/01/19 06:34:16;;;;;;;21.90;11.70;;;;;;;1.54;86.09;101385.43;87679;1284;93583;-62
2022/01/19 06:36:22;;;;;;;25.70;13.20;;;;;;;1.61;86.04;101383.52;87697;1284;78550;-62
2022/01/19 06:38:28;;;;;;;26.30;13.10;;;;;;;1.62;86.06;101386.59;87666;1284;80733;-62
2022/01/19 06:40:34;;;;;;;23.10;12.40;;;;;;;1.63;86.03;101383.55;87661;1284;98730;-62
2022/01/19 06:42:40;;;;;;;24.20;13.10;;;;;;;1.63;86.08;101383.22;87478;1286;88749;-64
2022/01/19 06:44:48;;;;;;;20.80;12.60;;;;;;;1.61;85.97;101380.69;87622;1284;94446;-64
2022/01/19 06:46:55;;;;;;;24.20;12.00;;;;;;;1.56;86.00;101377.10;87680;1283;80109;-64
2022/01/19 06:49:01;;;;;;;27.40;11.50;;;;;;;1.55;85.93;101375.95;87661;1283;80389;-70
2022/01/19 06:51:07;;;;;;;21.70;12.00;;;;;;;1.50;85.96;101374.14;87664;1283;99065;-65
2022/01/19 06:53:14;;;;;;;23.00;13.10;;;;;;;1.51;85.99;101372.38;87629;1283;89343;-71
2022/01/19 06:55:24;;;;;;;21.60;11.70;;;;;;;1.53;86.13;101375.02;87667;1283;95859;-71
2022/01/19 06:57:34;;;;;;;20.20;11.30;;;;;;;1.57;86.14;101373.89;87634;1283;78391;-72
2022/01/19 06:59:41;;;;;;;20.60;11.00;;;;;;;1.59;86.08;101373.88;87656;1283;79519;-69
2022/01/19 07:01:48;;;;;;;24.40;11.40;;;;;;;1.61;86.08;101379.77;87693;1283;99923;-70
2022/01/19 07:03:57;;;;;;;25.20;11.90;;;;;;;1.66;86.11;101380.33;87672;1283;85790;-71
2022/01/19 07:06:03;;;;;;;26.70;12.90;;;;;;;1.72;86.08;101382.34;87644;1283;94912;-69
2022/01/19 07:08:09;;;;;;;23.90;11.80;;;;;;;1.77;85.94;101381.14;87691;1283;80545;-70
2022/01/19 07:10:15;;;;;;;20.70;11.60;;;;;;;1.78;86.01;101381.26;87686;1284;83244;-64
2022/01/19 07:12:22;;;;;;;24.80;14.00;;;;;;;1.77;85.87;101378.83;87660;1284;100949;-64
2022/01/19 07:14:27;;;;;;;30.70;13.60;;;;;;;1.72;85.91;101377.20;87656;1284;87077;-65
2022/01/19 07:16:33;;;;;;;23.00;13.20;;;;;;;1.70;86.01;101374.71;87630;1284;96248;-65
2022/01/19 07:18:39;;;;;;;20.40;12.30;;;;;;;1.69;85.89;101368.91;87680;1284;79923;-71
2022/01/19 07:20:47;;;;;;;24.20;11.90;;;;;;;1.72;85.89;101362.84;87644;1284;83185;-64
2022/01/19 07:22:59;;;;;;;21.80;11.10;;;;;;;1.72;86.06;101365.70;87636;1283;100752;-73
2022/01/19 07:25:06;;;;;;;24.20;11.90;;;;;;;1.75;86.02;101363.55;87669;1284;88634;-73
2022/01/19 07:27:11;;;;;;;19.40;11.00;;;;;;;1.77;85.94;101365.29;87611;1284;95497;-71
2022/01/19 07:29:17;;;;;;;20.70;11.70;;;;;;;1.79;85.97;101364.42;87641;1284;78112;-73
2022/01/19 07:31:23;;;;;;;22.10;12.70;;;;;;;1.82;86.03;101367.44;87641;1284;80705;-73
2022/01/19 07:33:32;;;;;;;22.70;11.50;;;;;;;1.85;86.00;101364.23;87624;1284;100313;-64
2022/01/19 07:35:38;;;;;;;19.60;12.00;;;;;;;1.89;85.95;101362.02;87664;1283;88397;-64
2022/01/19 07:37:44;;;;;;;21.40;12.60;;;;;;;1.92;85.95;101355.74;87644;1283;93326;-73
2022/01/19 07:39:53;;;;;;;23.60;12.10;;;;;;;1.95;85.98;101355.48;87651;1283;81206;-72
2022/01/19 07:41:59;;;;;;;23.30;12.10;;;;;;;1.94;85.93;101353.10;87677;1284;80526;-71
2022/01/19 07:44:09;;;;;;;24.60;12.30;;;;;;;1.94;85.82;101349.75;87629;1284;98274;-72
2022/01/19 07:46:16;;;;;;;22.70;11.40;;;;;;;1.93;85.99;101345.31;87682;1283;86000;-64
2022/01/19 07:48:21;;;;;;;22.90;12.50;;;;;;;1.96;86.02;101342.83;87636;1284;95620;-71
2022/01/19 07:50:30;;;;;;;20.80;12.00;;;;;;;2.01;86.06;101335.34;87647;1284;77856;-64
2022/01/19 07:52:39;;;;;;;19.60;12.50;;;;;;;2.07;86.08;101332.42;87670;1284;82758;-63
2022/01/19 07:54:48;;;;;;;20.20;11.30;;;;;;;2.06;86.13;101328.01;87684;1284;100337;-65
2022/01/19 07:56:54;;;;;;;18.80;11.70;;;;;;;2.15;86.07;101324.50;87681;1283;88398;-75
2022/01/19 07:59:03;;;;;;;18.50;11.10;;;;;;;2.20;85.99;101320.92;87656;1284;95871;-75
2022/01/19 08:01:11;;;;;;;19.40;12.20;;;;;;;2.21;86.00;101314.09;87636;1283;81165;-74
2022/01/19 08:03:17;;;;;;;20.00;11.80;;;;;;;2.27;86.03;101310.45;87674;1284;82893;-65
2022/01/19 08:05:27;;;;;;;21.80;12.40;;;;;;;2.32;85.90;101306.55;87601;1284;100652;-65
2022/01/19 08:07:36;;;;;;;22.90;13.60;;;;;;;2.31;85.93;101308.22;87696;1284;89512;-74
2022/01/19 08:09:43;;;;;;;22.00;13.60;;;;;;;2.30;85.88;101309.02;87660;1284;93753;-74
2022/01/19 08:11:53;;;;;;;26.10;13.30;;;;;;;2.31;85.78;101307.66;87635;1283;77751;-74
2022/01/19 08:14:02;;;;;;;24.30;12.90;;;;;;;2.32;85.78;101306.00;87569;1284;82167;-64
2022/01/19 08:16:10;;;;;;;21.10;13.00;;;;;;;2.30;85.80;101304.55;87644;1285;100424;-65
2022/01/19 08:18:17;;;;;;;23.00;12.10;;;;;;;2.28;85.71;101304.50;87660;1283;88932;-75
2022/01/19 08:20:26;;;;;;;21.00;12.00;;;;;;;2.28;85.62;101306.32;87561;1284;96142;-66
2022/01/19 08:22:32;;;;;;;19.70;11.50;;;;;;;2.28;85.69;101302.54;87685;1284;80900;-75
2022/01/19 08:24:37;;;;;;;24.30;12.20;;;;;;;2.34;85.80;101302.46;87662;1283;82808;-64
2022/01/19 08:26:46;;;;;;;21.10;11.90;;;;;;;2.38;85.76;101295.90;87685;1283;98855;-65
2022/01/19 08:28:55;;;;;;;21.90;11.90;;;;;;;2.41;85.86;101295.40;87579;1284;88166;-64
2022/01/19 08:31:01;;;;;;;19.50;12.10;;;;;;;2.46;85.82;101284.89;87564;1284;95532;-65
2022/01/19 08:33:07;;;;;;;22.10;12.70;;;;;;;2.53;85.67;101282.70;87707;1283;80710;-66
2022/01/19 08:35:13;;;;;;;22.10;12.20;;;;;;;2.59;85.65;101282.46;87735;1283;81386;-66
2022/01/19 08:37:22;;;;;;;26.10;13.00;;;;;;;2.59;85.67;101283.36;87566;1284;99887;-73
2022/01/19 08:39:28;;;;;;;28.70;13.70;;;;;;;2.60;85.50;101285.39;87691;1283;88764;-73
2022/01/19 08:41:34;;;;;;;23.80;13.40;;;;;;;2.62;85.54;101283.25;87653;1283;95181;-72
2022/01/19 08:43:42;;;;;;;25.70;14.40;;;;;;;2.61;85.44;101277.69;87690;1283;79560;-74
2022/01/19 08:45:48;;;;;;;21.50;13.70;;;;;;;2.58;85.48;101268.84;87696;1283;80411;-74
2022/01/19 08:47:54;;;;;;;21.40;14.00;;;;;;;2.54;85.50;101263.41;87663;1283;101371;-72
2022/01/19 08:50:03;;;;;;;23.60;14.60;;;;;;;2.53;85.47;101258.54;87659;1283;85773;-72
2022/01/19 08:52:12;;;;;;;23.80;13.20;;;;;;;2.48;85.41;101259.15;87656;1283;95587;-71
2022/01/19 08:54:20;;;;;;;26.50;13.90;;;;;;;2.45;85.49;101262.89;87678;1283;78833;-63
2022/01/19 08:56:29;;;;;;;22.80;12.70;;;;;;;2.48;85.43;101255.92;87701;1283;83323;-64
2022/01/19 08:58:35;;;;;;;22.70;12.40;;;;;;;2.47;85.50;101257.26;87681;1283;101059;-64
2022/01/19 09:00:46;;;;;;;20.10;12.70;;;;;;;2.52;85.49;101253.11;87683;1283;88287;-63
2022/01/19 09:02:52;;;;;;;22.20;13.20;;;;;;;2.57;85.50;101254.12;87669;1283;93885;-73
2022/01/19 09:05:03;;;;;;;21.30;12.80;;;;;;;2.62;85.58;101248.78;87704;1283;77789;-69
2022/01/19 09:07:12;;;;;;;19.40;13.70;;;;;;;2.66;85.48;101238.51;87691;1283;81848;-63
2022/01/19 09:09:17;;;;;;;25.60;14.40;;;;;;;2.63;85.50;101236.63;87695;1283;100320;-63
2022/01/19 09:11:24;;;;;;;23.90;14.40;;;;;;;2.65;85.51;101239.48;87722;1283;87878;-64
2022/01/19 09:13:29;;;;;;;22.00;13.50;;;;;;;2.70;85.33;101236.73;87675;1283;95211;-64
2022/01/19 09:15:36;;;;;;;22.40;13.70;;;;;;;2.68;85.34;101237.09;87583;1284;78912;-64
2022/01/19 09:17:46;;;;;;;23.60;13.00;;;;;;;2.74;85.35;101232.17;87689;1283;79707;-70
2022/01/19 09:19:53;;;;;;;18.00;11.70;;;;;;;2.78;85.47;101226.16;87703;1283;100421;-71
2022/01/19 09:21:58;;;;;;;21.00;11.50;;;;;;;2.81;85.13;101221.64;87727;1283;87638;-71
2022/01/19 09:24:10;;;;;;;19.80;12.80;;;;;;;2.89;85.46;101221.23;87654;1283;95050;-72
2022/01/19 09:26:15;;;;;;;19.40;12.90;;;;;;;2.96;85.15;101221.92;87592;1284;79135;-70
2022/01/19 09:28:25;;;;;;;23.40;12.70;;;;;;;3.04;85.15;101218.98;87732;1283;80935;-74
2022/01/19 09:30:30;;;;;;;22.60;13.90;;;;;;;3.10;85.11;101216.88;87690;1283;100360;-72
2022/01/19 09:32:39;;;;;;;24.70;14.30;;;;;;;3.09;84.97;101211.98;87704;1283;89099;-64
2022/01/19 09:34:55;;;;;;;27.20;14.40;;;;;;;3.10;84.89;101215.46;87705;1283;93308;-66
2022/01/19 09:37:02;;;;;;;23.90;14.70;;;;;;;3.09;84.81;101208.56;87715;1283;77795;-70
2022/01/19 09:39:08;;;;;;;27.20;14.00;;;;;;;3.04;84.85;101203.84;87633;1284;81227;-72
2022/01/19 09:41:16;;;;;;;22.30;13.60;;;;;;;3.02;84.76;101198.65;87579;1284;100849;-73
2022/01/19 09:43:22;;;;;;;23.50;13.30;;;;;;;3.03;84.72;101196.98;87701;1283;88049;-75
2022/01/19 09:45:28;;;;;;;23.10;13.30;;;;;;;2.99;84.83;101193.52;87716;1283;92766;-72
2022/01/19 09:47:34;;;;;;;25.30;15.00;;;;;;;3.00;84.80;101189.19;87674;1284;81892;-71
2022/01/19 09:49:42;;;;;;;22.10;13.30;;;;;;;3.01;84.85;101183.05;87706;1284;82772;-73
2022/01/19 09:51:52;;;;;;;20.40;13.70;;;;;;;3.04;84.91;101183.36;87748;1284;99137;-73
2022/01/19 09:53:58;;;;;;;27.90;14.20;;;;;;;3.13;84.77;101174.47;87723;1285;88901;-66
2022/01/19 09:56:05;;;;;;;25.70;14.20;;;;;;;3.16;84.77;101169.98;87638;1284;94076;-74
2022/01/19 09:58:11;;;;;;;23.30;15.10;;;;;;;3.23;84.75;101167.57;87750;1285;76644;-64
2022/01/19 10:00:18;;;;;;;23.30;14.60;;;;;;;3.30;84.62;101163.29;87702;1285;79894;-63
2022/01/19 10:02:28;;;;;;;22.70;14.70;;;;;;;3.33;84.47;101159.08;87695;1285;100233;-62
2022/01/19 10:04:37;;;;;;;22.50;14.20;;;;;;;3.33;84.41;101160.86;87708;1284;88661;-62
2022/01/19 10:06:42;;;;;;;24.00;14.70;;;;;;;3.34;84.42;101156.95;87699;1284;95827;-63
2022/01/19 10:08:50;;;;;;;22.40;13.40;;;;;;;3.33;84.51;101153.21;87716;1284;79690;-72
2022/01/19 10:11:21;;;;;;;25.70;14.20;;;;;;;3.37;84.39;101150.93;87756;1284;83922;-72
2022/01/19 10:18:33;;;;;;;24.10;14.10;;;;;;;3.40;84.17;101150.72;87718;1284;95252;-74
2022/01/19 10:20:39;;;;;;;23.60;14.70;;;;;;;3.34;84.31;101156.53;87695;1284;79091;-62
2022/01/19 10:22:48;;;;;;;28.30;14.90;;;;;;;3.39;84.15;101155.75;87672;1284;83788;-62
2022/01/19 10:24:56;;;;;;;24.80;15.20;;;;;;;3.31;84.07;101150.04;87724;1284;101001;-71
2022/01/19 10:27:37;;;;;;;22.30;14.50;;;;;;;3.26;84.01;101152.35;87681;1284;88695;-71
2022/01/19 10:29:43;;;;;;;29.30;15.50;;;;;;;3.21;84.14;101148.89;87709;1284;95562;-77
2022/01/19 10:31:49;;;;;;;23.60;15.00;;;;;;;3.19;83.88;101150.83;87695;1284;81336;-70
2022/01/19 10:34:14;;;;;;;29.40;15.30;;;;;;;3.15;83.92;101141.92;87705;1284;82482;-68
2022/01/19 10:36:19;;;;;;;23.00;15.00;;;;;;;3.14;83.90;101138.42;87711;1284;98546;-75
2022/01/19 10:38:29;;;;;;;26.10;15.00;;;;;;;3.12;83.96;101138.23;87704;1284;87882;-79
2022/01/19 10:40:38;;;;;;;23.20;13.50;;;;;;;3.18;84.14;101136.88;87721;1284;93869;-67
2022/01/19 10:42:46;;;;;;;23.90;13.40;;;;;;;3.24;84.07;101128.23;87572;1284;79597;-63
2022/01/19 10:44:56;;;;;;;22.90;14.80;;;;;;;3.21;84.15;101120.08;87671;1286;83863;-66
2022/01/19 10:47:04;;;;;;;24.50;15.10;;;;;;;3.24;84.11;101124.27;87697;1284;99067;-66
2022/01/19 10:49:11;;;;;;;24.30;15.10;;;;;;;3.30;84.07;101115.24;87668;1284;88987;-77
2022/01/19 10:51:21;;;;;;;23.90;14.20;;;;;;;3.35;83.98;101109.27;87705;1284;95601;-71
2022/01/19 10:53:30;;;;;;;25.20;15.60;;;;;;;3.37;83.99;101117.46;87704;1284;76680;-73
2022/01/19 10:55:44;;;;;;;23.00;15.40;;;;;;;3.36;83.92;101120.75;87722;1284;81192;-72
2022/01/19 10:57:52;;;;;;;23.50;15.30;;;;;;;3.32;83.80;101112.52;87713;1284;99864;-73